sensor_id;sensor_type;location;lat;lon;timestamp;P1;durP1;ratioP1;P2;durP2;ratioP2
9716;SDS011;4897;43.570;27.832;2022-11-06T00:00:38;50.58;;;23.83;;
9716;SDS011;4897;43.570;27.832;2022-11-06T00:03:05;61.03;;;21.75;;
9716;SDS011;4897;43.570;27.832;2022-11-06T00:05:34;60.03;;;21.98;;
9716;SDS011;4897;43.570;27.832;2022-11-06T00:08:29;66.82;;;22.88;;
9716;SDS011;4897;43.570;27.832;2022-11-06T00:10:57;60.17;;;23.15;;
9716;SDS011;4897;43.570;27.832;2022-11-06T00:13:25;63.60;;;22.58;;
9716;SDS011;4897;43.570;27.832;2022-11-06T00:15:52;67.20;;;22.52;;
9716;SDS011;4897;43.570;27.832;2022-11-06T00:18:19;46.33;;;22.13;;
9716;SDS011;4897;43.570;27.832;2022-11-06T00:20:47;61.33;;;19.98;;
9716;SDS011;4897;43.570;27.832;2022-11-06T00:23:14;52.28;;;20.27;;
9716;SDS011;4897;43.570;27.832;2022-11-06T00:25:41;51.17;;;21.02;;
9716;SDS011;4897;43.570;27.832;2022-11-06T00:28:08;48.53;;;20.38;;
9716;SDS011;4897;43.570;27.832;2022-11-06T00:30:35;43.72;;;20.58;;
9716;SDS011;4897;43.570;27.832;2022-11-06T00:33:02;47.63;;;20.65;;
9716;SDS011;4897;43.570;27.832;2022-11-06T00:35:29;52.58;;;21.92;;
9716;SDS011;4897;43.570;27.832;2022-11-06T00:37:57;44.20;;;20.40;;
9716;SDS011;4897;43.570;27.832;2022-11-06T00:40:24;57.25;;;21.20;;
9716;SDS011;4897;43.570;27.832;2022-11-06T00:42:54;60.58;;;20.98;;
9716;SDS011;4897;43.570;27.832;2022-11-06T00:45:22;42.92;;;20.67;;
9716;SDS011;4897;43.570;27.832;2022-11-06T00:47:49;45.95;;;21.15;;
9716;SDS011;4897;43.570;27.832;2022-11-06T00:50:16;45.53;;;20.13;;
9716;SDS011;4897;43.570;27.832;2022-11-06T00:52:43;44.40;;;20.52;;
9716;SDS011;4897;43.570;27.832;2022-11-06T00:55:12;50.38;;;20.50;;
9716;SDS011;4897;43.570;27.832;2022-11-06T00:57:38;44.85;;;20.40;;
9716;SDS011;4897;43.570;27.832;2022-11-06T01:00:06;45.00;;;19.80;;
9716;SDS011;4897;43.570;27.832;2022-11-06T01:02:35;63.13;;;22.08;;
9716;SDS011;4897;43.570;27.832;2022-11-06T01:05:02;60.97;;;20.60;;
9716;SDS011;4897;43.570;27.832;2022-11-06T01:07:29;61.58;;;20.08;;
9716;SDS011;4897;43.570;27.832;2022-11-06T01:09:56;58.88;;;21.00;;
9716;SDS011;4897;43.570;27.832;2022-11-06T01:12:24;42.83;;;20.38;;
9716;SDS011;4897;43.570;27.832;2022-11-06T01:14:51;43.60;;;20.20;;
9716;SDS011;4897;43.570;27.832;2022-11-06T01:17:18;47.28;;;20.45;;
9716;SDS011;4897;43.570;27.832;2022-11-06T01:19:45;48.50;;;21.00;;
9716;SDS011;4897;43.570;27.832;2022-11-06T01:22:12;58.33;;;20.88;;
9716;SDS011;4897;43.570;27.832;2022-11-06T01:24:39;46.28;;;21.55;;
9716;SDS011;4897;43.570;27.832;2022-11-06T01:27:06;46.17;;;21.70;;
9716;SDS011;4897;43.570;27.832;2022-11-06T01:29:34;55.50;;;20.98;;
9716;SDS011;4897;43.570;27.832;2022-11-06T01:32:02;42.67;;;19.80;;
9716;SDS011;4897;43.570;27.832;2022-11-06T01:34:29;48.20;;;20.42;;
9716;SDS011;4897;43.570;27.832;2022-11-06T01:36:56;49.35;;;19.98;;
9716;SDS011;4897;43.570;27.832;2022-11-06T01:39:23;44.00;;;19.55;;
9716;SDS011;4897;43.570;27.832;2022-11-06T01:41:50;43.55;;;18.65;;
9716;SDS011;4897;43.570;27.832;2022-11-06T01:47:24;70.40;;;18.63;;
9716;SDS011;4897;43.570;27.832;2022-11-06T01:49:54;40.78;;;17.05;;
9716;SDS011;4897;43.570;27.832;2022-11-06T01:52:22;54.70;;;17.90;;
9716;SDS011;4897;43.570;27.832;2022-11-06T01:54:51;39.90;;;16.88;;
9716;SDS011;4897;43.570;27.832;2022-11-06T01:57:22;63.70;;;16.80;;
9716;SDS011;4897;43.570;27.832;2022-11-06T01:59:49;61.10;;;16.33;;
9716;SDS011;4897;43.570;27.832;2022-11-06T02:02:18;96.05;;;16.38;;
9716;SDS011;4897;43.570;27.832;2022-11-06T02:04:47;44.00;;;15.77;;
9716;SDS011;4897;43.570;27.832;2022-11-06T02:07:14;60.78;;;16.27;;
9716;SDS011;4897;43.570;27.832;2022-11-06T02:09:43;62.33;;;15.65;;
9716;SDS011;4897;43.570;27.832;2022-11-06T02:15:13;49.75;;;17.23;;
9716;SDS011;4897;43.570;27.832;2022-11-06T02:17:54;35.80;;;15.60;;
9716;SDS011;4897;43.570;27.832;2022-11-06T02:20:33;37.05;;;16.70;;
9716;SDS011;4897;43.570;27.832;2022-11-06T02:23:07;33.95;;;16.17;;
9716;SDS011;4897;43.570;27.832;2022-11-06T02:26:03;32.45;;;15.30;;
9716;SDS011;4897;43.570;27.832;2022-11-06T02:28:40;31.38;;;14.27;;
9716;SDS011;4897;43.570;27.832;2022-11-06T02:31:16;34.05;;;15.25;;
9716;SDS011;4897;43.570;27.832;2022-11-06T02:33:50;29.23;;;13.68;;
9716;SDS011;4897;43.570;27.832;2022-11-06T02:36:21;22.63;;;13.52;;
9716;SDS011;4897;43.570;27.832;2022-11-06T02:38:53;35.33;;;14.55;;
9716;SDS011;4897;43.570;27.832;2022-11-06T02:41:24;31.45;;;15.70;;
9716;SDS011;4897;43.570;27.832;2022-11-06T02:43:57;28.65;;;14.95;;
9716;SDS011;4897;43.570;27.832;2022-11-06T02:46:27;30.63;;;15.48;;
9716;SDS011;4897;43.570;27.832;2022-11-06T02:49:00;25.92;;;14.52;;
9716;SDS011;4897;43.570;27.832;2022-11-06T02:51:29;26.17;;;14.23;;
9716;SDS011;4897;43.570;27.832;2022-11-06T02:53:59;30.88;;;18.40;;
9716;SDS011;4897;43.570;27.832;2022-11-06T02:56:32;35.08;;;15.73;;
9716;SDS011;4897;43.570;27.832;2022-11-06T02:59:04;25.67;;;15.23;;
9716;SDS011;4897;43.570;27.832;2022-11-06T03:01:36;27.85;;;14.15;;
9716;SDS011;4897;43.570;27.832;2022-11-06T03:04:09;23.63;;;13.52;;
9716;SDS011;4897;43.570;27.832;2022-11-06T03:06:42;34.97;;;14.02;;
9716;SDS011;4897;43.570;27.832;2022-11-06T03:09:13;26.10;;;13.40;;
9716;SDS011;4897;43.570;27.832;2022-11-06T03:11:44;48.53;;;13.93;;
9716;SDS011;4897;43.570;27.832;2022-11-06T03:14:21;25.65;;;13.45;;
9716;SDS011;4897;43.570;27.832;2022-11-06T03:16:56;23.25;;;12.57;;
9716;SDS011;4897;43.570;27.832;2022-11-06T03:19:26;39.45;;;13.10;;
9716;SDS011;4897;43.570;27.832;2022-11-06T03:21:59;33.33;;;12.77;;
9716;SDS011;4897;43.570;27.832;2022-11-06T03:24:33;52.83;;;12.15;;
9716;SDS011;4897;43.570;27.832;2022-11-06T03:27:14;24.25;;;12.82;;
9716;SDS011;4897;43.570;27.832;2022-11-06T03:29:49;20.20;;;11.65;;
9716;SDS011;4897;43.570;27.832;2022-11-06T03:32:25;24.52;;;13.27;;
9716;SDS011;4897;43.570;27.832;2022-11-06T03:34:57;21.25;;;12.25;;
9716;SDS011;4897;43.570;27.832;2022-11-06T03:37:32;24.00;;;10.68;;
9716;SDS011;4897;43.570;27.832;2022-11-06T03:40:02;32.40;;;11.02;;
9716;SDS011;4897;43.570;27.832;2022-11-06T03:42:34;43.75;;;10.27;;
9716;SDS011;4897;43.570;27.832;2022-11-06T03:45:05;22.13;;;10.05;;
9716;SDS011;4897;43.570;27.832;2022-11-06T03:47:39;22.10;;;10.05;;
9716;SDS011;4897;43.570;27.832;2022-11-06T03:50:10;64.03;;;9.80;;
9716;SDS011;4897;43.570;27.832;2022-11-06T03:52:41;22.92;;;9.38;;
9716;SDS011;4897;43.570;27.832;2022-11-06T03:55:15;58.65;;;10.10;;
9716;SDS011;4897;43.570;27.832;2022-11-06T03:57:45;32.47;;;10.43;;
9716;SDS011;4897;43.570;27.832;2022-11-06T04:00:17;42.55;;;11.95;;
9716;SDS011;4897;43.570;27.832;2022-11-06T04:02:47;27.20;;;10.40;;
9716;SDS011;4897;43.570;27.832;2022-11-06T04:05:28;31.65;;;10.85;;
9716;SDS011;4897;43.570;27.832;2022-11-06T04:07:57;28.27;;;11.68;;
9716;SDS011;4897;43.570;27.832;2022-11-06T04:10:42;25.92;;;12.15;;
9716;SDS011;4897;43.570;27.832;2022-11-06T04:13:30;27.75;;;12.27;;
9716;SDS011;4897;43.570;27.832;2022-11-06T04:16:19;25.50;;;12.77;;
9716;SDS011;4897;43.570;27.832;2022-11-06T04:18:46;33.88;;;14.02;;
9716;SDS011;4897;43.570;27.832;2022-11-06T04:21:14;36.42;;;15.45;;
9716;SDS011;4897;43.570;27.832;2022-11-06T04:23:56;28.73;;;15.63;;
9716;SDS011;4897;43.570;27.832;2022-11-06T04:26:51;29.05;;;15.77;;
9716;SDS011;4897;43.570;27.832;2022-11-06T04:29:33;37.17;;;15.25;;
9716;SDS011;4897;43.570;27.832;2022-11-06T04:32:13;26.73;;;16.15;;
9716;SDS011;4897;43.570;27.832;2022-11-06T04:34:45;28.92;;;15.73;;
9716;SDS011;4897;43.570;27.832;2022-11-06T04:37:20;25.85;;;15.18;;
9716;SDS011;4897;43.570;27.832;2022-11-06T04:40:03;30.58;;;14.73;;
9716;SDS011;4897;43.570;27.832;2022-11-06T04:42:35;26.15;;;15.00;;
9716;SDS011;4897;43.570;27.832;2022-11-06T04:45:09;29.80;;;15.52;;
9716;SDS011;4897;43.570;27.832;2022-11-06T04:47:42;30.63;;;15.10;;
9716;SDS011;4897;43.570;27.832;2022-11-06T04:50:11;28.45;;;15.10;;
9716;SDS011;4897;43.570;27.832;2022-11-06T04:52:40;29.08;;;15.05;;
9716;SDS011;4897;43.570;27.832;2022-11-06T04:55:10;25.80;;;15.50;;
9716;SDS011;4897;43.570;27.832;2022-11-06T04:57:36;24.55;;;14.27;;
9716;SDS011;4897;43.570;27.832;2022-11-06T05:00:04;33.35;;;15.25;;
9716;SDS011;4897;43.570;27.832;2022-11-06T05:02:31;30.13;;;15.25;;
9716;SDS011;4897;43.570;27.832;2022-11-06T05:04:59;30.88;;;14.85;;
9716;SDS011;4897;43.570;27.832;2022-11-06T05:07:26;29.05;;;15.50;;
9716;SDS011;4897;43.570;27.832;2022-11-06T05:09:53;28.02;;;15.27;;
9716;SDS011;4897;43.570;27.832;2022-11-06T05:12:20;29.55;;;15.32;;
9716;SDS011;4897;43.570;27.832;2022-11-06T05:14:47;32.72;;;15.95;;
9716;SDS011;4897;43.570;27.832;2022-11-06T05:17:14;30.20;;;15.77;;
9716;SDS011;4897;43.570;27.832;2022-11-06T05:19:41;27.52;;;15.75;;
9716;SDS011;4897;43.570;27.832;2022-11-06T05:22:09;28.98;;;16.85;;
9716;SDS011;4897;43.570;27.832;2022-11-06T05:24:53;35.83;;;16.58;;
9716;SDS011;4897;43.570;27.832;2022-11-06T05:27:20;31.08;;;16.17;;
9716;SDS011;4897;43.570;27.832;2022-11-06T05:29:47;28.00;;;16.02;;
9716;SDS011;4897;43.570;27.832;2022-11-06T05:32:13;26.92;;;15.30;;
9716;SDS011;4897;43.570;27.832;2022-11-06T05:34:40;29.02;;;15.00;;
9716;SDS011;4897;43.570;27.832;2022-11-06T05:37:08;27.63;;;16.05;;
9716;SDS011;4897;43.570;27.832;2022-11-06T05:39:35;27.55;;;14.73;;
9716;SDS011;4897;43.570;27.832;2022-11-06T05:42:04;21.23;;;13.18;;
9716;SDS011;4897;43.570;27.832;2022-11-06T05:44:31;24.58;;;14.40;;
9716;SDS011;4897;43.570;27.832;2022-11-06T05:46:58;22.75;;;13.63;;
9716;SDS011;4897;43.570;27.832;2022-11-06T05:49:25;30.90;;;13.70;;
9716;SDS011;4897;43.570;27.832;2022-11-06T05:51:52;21.42;;;13.27;;
9716;SDS011;4897;43.570;27.832;2022-11-06T05:54:20;26.90;;;13.38;;
9716;SDS011;4897;43.570;27.832;2022-11-06T05:56:47;26.15;;;12.43;;
9716;SDS011;4897;43.570;27.832;2022-11-06T05:59:14;24.75;;;12.85;;
9716;SDS011;4897;43.570;27.832;2022-11-06T06:01:40;33.70;;;13.82;;
9716;SDS011;4897;43.570;27.832;2022-11-06T06:04:07;23.80;;;12.75;;
9716;SDS011;4897;43.570;27.832;2022-11-06T06:06:34;27.80;;;13.05;;
9716;SDS011;4897;43.570;27.832;2022-11-06T06:09:01;26.35;;;13.02;;
9716;SDS011;4897;43.570;27.832;2022-11-06T06:11:30;26.45;;;13.35;;
9716;SDS011;4897;43.570;27.832;2022-11-06T06:14:00;23.40;;;12.57;;
9716;SDS011;4897;43.570;27.832;2022-11-06T06:16:27;22.95;;;11.82;;
9716;SDS011;4897;43.570;27.832;2022-11-06T06:18:53;22.40;;;11.88;;
9716;SDS011;4897;43.570;27.832;2022-11-06T06:21:20;23.52;;;12.18;;
9716;SDS011;4897;43.570;27.832;2022-11-06T06:23:47;30.08;;;12.25;;
9716;SDS011;4897;43.570;27.832;2022-11-06T06:26:14;18.13;;;11.80;;
9716;SDS011;4897;43.570;27.832;2022-11-06T06:28:42;22.83;;;12.30;;
9716;SDS011;4897;43.570;27.832;2022-11-06T06:31:09;23.55;;;11.27;;
9716;SDS011;4897;43.570;27.832;2022-11-06T06:33:39;23.02;;;11.23;;
9716;SDS011;4897;43.570;27.832;2022-11-06T06:36:06;27.95;;;12.20;;
9716;SDS011;4897;43.570;27.832;2022-11-06T06:38:34;22.45;;;11.10;;
9716;SDS011;4897;43.570;27.832;2022-11-06T06:41:01;25.40;;;11.55;;
9716;SDS011;4897;43.570;27.832;2022-11-06T06:43:29;27.95;;;10.93;;
9716;SDS011;4897;43.570;27.832;2022-11-06T06:45:58;16.45;;;10.02;;
9716;SDS011;4897;43.570;27.832;2022-11-06T06:48:26;19.88;;;10.52;;
9716;SDS011;4897;43.570;27.832;2022-11-06T06:50:55;21.85;;;10.23;;
9716;SDS011;4897;43.570;27.832;2022-11-06T06:53:23;22.52;;;10.75;;
9716;SDS011;4897;43.570;27.832;2022-11-06T06:55:53;20.13;;;10.75;;
9716;SDS011;4897;43.570;27.832;2022-11-06T06:58:19;20.00;;;10.45;;
9716;SDS011;4897;43.570;27.832;2022-11-06T07:00:46;22.15;;;9.68;;
9716;SDS011;4897;43.570;27.832;2022-11-06T07:03:15;20.38;;;10.35;;
9716;SDS011;4897;43.570;27.832;2022-11-06T07:05:42;24.77;;;12.10;;
9716;SDS011;4897;43.570;27.832;2022-11-06T07:08:08;19.20;;;9.32;;
9716;SDS011;4897;43.570;27.832;2022-11-06T07:10:35;17.90;;;9.85;;
9716;SDS011;4897;43.570;27.832;2022-11-06T07:13:02;19.58;;;10.48;;
9716;SDS011;4897;43.570;27.832;2022-11-06T07:15:30;24.38;;;10.77;;
9716;SDS011;4897;43.570;27.832;2022-11-06T07:17:59;27.77;;;11.90;;
9716;SDS011;4897;43.570;27.832;2022-11-06T07:20:28;20.38;;;11.65;;
9716;SDS011;4897;43.570;27.832;2022-11-06T07:22:55;26.13;;;11.38;;
9716;SDS011;4897;43.570;27.832;2022-11-06T07:25:22;23.80;;;12.68;;
9716;SDS011;4897;43.570;27.832;2022-11-06T07:27:50;20.15;;;11.40;;
9716;SDS011;4897;43.570;27.832;2022-11-06T07:30:17;20.45;;;11.70;;
9716;SDS011;4897;43.570;27.832;2022-11-06T07:32:45;21.23;;;10.75;;
9716;SDS011;4897;43.570;27.832;2022-11-06T07:35:12;18.27;;;10.13;;
9716;SDS011;4897;43.570;27.832;2022-11-06T07:37:41;19.33;;;9.68;;
9716;SDS011;4897;43.570;27.832;2022-11-06T07:40:08;21.98;;;10.02;;
9716;SDS011;4897;43.570;27.832;2022-11-06T07:42:39;19.35;;;10.20;;
9716;SDS011;4897;43.570;27.832;2022-11-06T07:45:06;17.15;;;9.55;;
9716;SDS011;4897;43.570;27.832;2022-11-06T07:47:34;15.18;;;8.68;;
9716;SDS011;4897;43.570;27.832;2022-11-06T07:50:01;15.73;;;9.23;;
9716;SDS011;4897;43.570;27.832;2022-11-06T07:52:28;22.10;;;9.60;;
9716;SDS011;4897;43.570;27.832;2022-11-06T07:54:56;17.20;;;9.27;;
9716;SDS011;4897;43.570;27.832;2022-11-06T07:57:23;15.55;;;9.10;;
9716;SDS011;4897;43.570;27.832;2022-11-06T07:59:50;16.60;;;8.75;;
9716;SDS011;4897;43.570;27.832;2022-11-06T08:02:17;18.58;;;8.68;;
9716;SDS011;4897;43.570;27.832;2022-11-06T08:04:45;16.17;;;9.55;;
9716;SDS011;4897;43.570;27.832;2022-11-06T08:07:11;19.02;;;9.27;;
9716;SDS011;4897;43.570;27.832;2022-11-06T08:09:38;18.90;;;9.77;;
9716;SDS011;4897;43.570;27.832;2022-11-06T08:12:08;17.75;;;9.02;;
9716;SDS011;4897;43.570;27.832;2022-11-06T08:14:34;16.58;;;8.57;;
9716;SDS011;4897;43.570;27.832;2022-11-06T08:17:01;20.60;;;9.35;;
9716;SDS011;4897;43.570;27.832;2022-11-06T08:19:28;21.45;;;9.93;;
9716;SDS011;4897;43.570;27.832;2022-11-06T08:21:55;21.17;;;9.45;;
9716;SDS011;4897;43.570;27.832;2022-11-06T08:24:22;19.08;;;8.52;;
9716;SDS011;4897;43.570;27.832;2022-11-06T08:26:49;18.92;;;9.05;;
9716;SDS011;4897;43.570;27.832;2022-11-06T08:29:17;15.57;;;8.80;;
9716;SDS011;4897;43.570;27.832;2022-11-06T08:31:44;18.13;;;8.98;;
9716;SDS011;4897;43.570;27.832;2022-11-06T08:34:11;18.48;;;8.38;;
9716;SDS011;4897;43.570;27.832;2022-11-06T08:36:38;23.27;;;8.60;;
9716;SDS011;4897;43.570;27.832;2022-11-06T08:39:09;17.08;;;8.30;;
9716;SDS011;4897;43.570;27.832;2022-11-06T08:41:37;14.32;;;8.18;;
9716;SDS011;4897;43.570;27.832;2022-11-06T08:44:04;18.60;;;8.48;;
9716;SDS011;4897;43.570;27.832;2022-11-06T08:46:32;18.70;;;8.25;;
9716;SDS011;4897;43.570;27.832;2022-11-06T08:48:59;16.63;;;7.95;;
9716;SDS011;4897;43.570;27.832;2022-11-06T08:51:26;22.63;;;8.70;;
9716;SDS011;4897;43.570;27.832;2022-11-06T08:53:53;21.30;;;8.10;;
9716;SDS011;4897;43.570;27.832;2022-11-06T08:56:20;16.90;;;7.80;;
9716;SDS011;4897;43.570;27.832;2022-11-06T08:58:47;18.00;;;8.48;;
9716;SDS011;4897;43.570;27.832;2022-11-06T09:01:14;14.52;;;8.20;;
9716;SDS011;4897;43.570;27.832;2022-11-06T09:03:42;15.35;;;8.63;;
9716;SDS011;4897;43.570;27.832;2022-11-06T09:06:11;17.83;;;8.00;;
9716;SDS011;4897;43.570;27.832;2022-11-06T09:08:38;21.65;;;7.85;;
9716;SDS011;4897;43.570;27.832;2022-11-06T09:11:05;18.65;;;8.55;;
9716;SDS011;4897;43.570;27.832;2022-11-06T09:13:32;15.30;;;7.88;;
9716;SDS011;4897;43.570;27.832;2022-11-06T09:16:00;16.08;;;8.02;;
9716;SDS011;4897;43.570;27.832;2022-11-06T09:18:27;21.23;;;8.98;;
9716;SDS011;4897;43.570;27.832;2022-11-06T09:20:57;16.63;;;8.20;;
9716;SDS011;4897;43.570;27.832;2022-11-06T09:23:24;16.98;;;8.00;;
9716;SDS011;4897;43.570;27.832;2022-11-06T09:25:51;16.27;;;8.18;;
9716;SDS011;4897;43.570;27.832;2022-11-06T09:28:17;14.02;;;8.00;;
9716;SDS011;4897;43.570;27.832;2022-11-06T09:30:44;17.23;;;7.78;;
9716;SDS011;4897;43.570;27.832;2022-11-06T09:33:11;20.27;;;7.50;;
9716;SDS011;4897;43.570;27.832;2022-11-06T09:35:38;17.08;;;8.35;;
9716;SDS011;4897;43.570;27.832;2022-11-06T09:38:08;15.80;;;7.75;;
9716;SDS011;4897;43.570;27.832;2022-11-06T09:40:38;20.55;;;7.85;;
9716;SDS011;4897;43.570;27.832;2022-11-06T09:46:04;13.43;;;7.45;;
9716;SDS011;4897;43.570;27.832;2022-11-06T09:48:36;14.68;;;7.35;;
9716;SDS011;4897;43.570;27.832;2022-11-06T09:51:08;14.63;;;8.55;;
9716;SDS011;4897;43.570;27.832;2022-11-06T09:53:44;13.93;;;7.88;;
9716;SDS011;4897;43.570;27.832;2022-11-06T09:56:13;22.15;;;13.88;;
9716;SDS011;4897;43.570;27.832;2022-11-06T09:58:43;18.63;;;7.75;;
9716;SDS011;4897;43.570;27.832;2022-11-06T10:01:12;15.65;;;7.25;;
9716;SDS011;4897;43.570;27.832;2022-11-06T10:03:44;17.27;;;7.80;;
9716;SDS011;4897;43.570;27.832;2022-11-06T10:06:16;12.98;;;7.18;;
9716;SDS011;4897;43.570;27.832;2022-11-06T10:08:45;15.88;;;7.60;;
9716;SDS011;4897;43.570;27.832;2022-11-06T10:11:22;14.10;;;7.57;;
9716;SDS011;4897;43.570;27.832;2022-11-06T10:13:59;16.27;;;7.63;;
9716;SDS011;4897;43.570;27.832;2022-11-06T10:16:41;11.18;;;7.68;;
9716;SDS011;4897;43.570;27.832;2022-11-06T10:19:16;15.25;;;7.20;;
9716;SDS011;4897;43.570;27.832;2022-11-06T10:21:51;18.50;;;7.60;;
9716;SDS011;4897;43.570;27.832;2022-11-06T10:24:27;14.85;;;7.25;;
9716;SDS011;4897;43.570;27.832;2022-11-06T10:27:08;16.02;;;7.13;;
9716;SDS011;4897;43.570;27.832;2022-11-06T10:29:47;15.57;;;7.47;;
9716;SDS011;4897;43.570;27.832;2022-11-06T10:32:48;17.60;;;8.35;;
9716;SDS011;4897;43.570;27.832;2022-11-06T10:35:33;17.88;;;7.40;;
9716;SDS011;4897;43.570;27.832;2022-11-06T10:38:04;20.38;;;8.02;;
9716;SDS011;4897;43.570;27.832;2022-11-06T10:40:39;16.25;;;7.50;;
9716;SDS011;4897;43.570;27.832;2022-11-06T10:43:15;16.52;;;7.65;;
9716;SDS011;4897;43.570;27.832;2022-11-06T10:45:50;17.40;;;7.88;;
9716;SDS011;4897;43.570;27.832;2022-11-06T10:48:23;15.05;;;7.35;;
9716;SDS011;4897;43.570;27.832;2022-11-06T10:50:57;16.45;;;7.43;;
9716;SDS011;4897;43.570;27.832;2022-11-06T10:53:35;20.40;;;7.38;;
9716;SDS011;4897;43.570;27.832;2022-11-06T10:56:23;19.25;;;8.00;;
9716;SDS011;4897;43.570;27.832;2022-11-06T10:59:03;17.83;;;7.45;;
9716;SDS011;4897;43.570;27.832;2022-11-06T11:01:30;16.83;;;7.18;;
9716;SDS011;4897;43.570;27.832;2022-11-06T11:03:57;17.35;;;7.80;;
9716;SDS011;4897;43.570;27.832;2022-11-06T11:06:24;16.33;;;6.88;;
9716;SDS011;4897;43.570;27.832;2022-11-06T11:08:51;16.67;;;7.60;;
9716;SDS011;4897;43.570;27.832;2022-11-06T11:11:19;14.43;;;7.80;;
9716;SDS011;4897;43.570;27.832;2022-11-06T11:13:50;15.32;;;7.13;;
9716;SDS011;4897;43.570;27.832;2022-11-06T11:16:33;14.85;;;7.05;;
9716;SDS011;4897;43.570;27.832;2022-11-06T11:19:13;19.85;;;7.53;;
9716;SDS011;4897;43.570;27.832;2022-11-06T11:21:51;18.90;;;7.03;;
9716;SDS011;4897;43.570;27.832;2022-11-06T11:24:19;15.32;;;7.20;;
9716;SDS011;4897;43.570;27.832;2022-11-06T11:26:48;17.08;;;7.25;;
9716;SDS011;4897;43.570;27.832;2022-11-06T11:29:19;18.98;;;7.20;;
9716;SDS011;4897;43.570;27.832;2022-11-06T11:31:51;13.15;;;6.93;;
9716;SDS011;4897;43.570;27.832;2022-11-06T11:34:21;15.25;;;6.80;;
9716;SDS011;4897;43.570;27.832;2022-11-06T11:36:55;13.30;;;6.97;;
9716;SDS011;4897;43.570;27.832;2022-11-06T11:39:25;11.20;;;6.40;;
9716;SDS011;4897;43.570;27.832;2022-11-06T11:47:44;24.83;;;6.60;;
9716;SDS011;4897;43.570;27.832;2022-11-06T11:50:24;11.48;;;7.32;;
9716;SDS011;4897;43.570;27.832;2022-11-06T11:52:55;13.02;;;7.03;;
9716;SDS011;4897;43.570;27.832;2022-11-06T11:55:26;15.30;;;7.05;;
9716;SDS011;4897;43.570;27.832;2022-11-06T11:57:56;17.58;;;8.32;;
9716;SDS011;4897;43.570;27.832;2022-11-06T12:00:25;18.63;;;7.45;;
9716;SDS011;4897;43.570;27.832;2022-11-06T12:02:54;14.35;;;7.63;;
9716;SDS011;4897;43.570;27.832;2022-11-06T12:05:26;14.68;;;7.80;;
9716;SDS011;4897;43.570;27.832;2022-11-06T12:07:58;15.23;;;7.65;;
9716;SDS011;4897;43.570;27.832;2022-11-06T12:10:27;14.23;;;8.23;;
9716;SDS011;4897;43.570;27.832;2022-11-06T12:13:00;19.25;;;8.07;;
9716;SDS011;4897;43.570;27.832;2022-11-06T12:15:31;16.23;;;7.35;;
9716;SDS011;4897;43.570;27.832;2022-11-06T12:18:06;12.73;;;7.57;;
9716;SDS011;4897;43.570;27.832;2022-11-06T12:20:39;20.30;;;7.57;;
9716;SDS011;4897;43.570;27.832;2022-11-06T12:23:10;16.48;;;7.43;;
9716;SDS011;4897;43.570;27.832;2022-11-06T12:25:43;18.27;;;7.60;;
9716;SDS011;4897;43.570;27.832;2022-11-06T12:28:20;15.50;;;7.35;;
9716;SDS011;4897;43.570;27.832;2022-11-06T12:30:56;19.48;;;8.15;;
9716;SDS011;4897;43.570;27.832;2022-11-06T12:33:28;13.45;;;7.70;;
9716;SDS011;4897;43.570;27.832;2022-11-06T12:35:58;15.73;;;7.93;;
9716;SDS011;4897;43.570;27.832;2022-11-06T12:38:29;20.58;;;7.63;;
9716;SDS011;4897;43.570;27.832;2022-11-06T12:41:00;11.85;;;7.15;;
9716;SDS011;4897;43.570;27.832;2022-11-06T12:43:32;20.20;;;7.90;;
9716;SDS011;4897;43.570;27.832;2022-11-06T12:46:08;19.58;;;7.80;;
9716;SDS011;4897;43.570;27.832;2022-11-06T12:48:54;20.63;;;7.45;;
9716;SDS011;4897;43.570;27.832;2022-11-06T12:51:31;16.67;;;7.75;;
9716;SDS011;4897;43.570;27.832;2022-11-06T12:54:09;16.05;;;7.55;;
9716;SDS011;4897;43.570;27.832;2022-11-06T12:56:48;17.33;;;8.15;;
9716;SDS011;4897;43.570;27.832;2022-11-06T12:59:27;15.02;;;7.97;;
9716;SDS011;4897;43.570;27.832;2022-11-06T13:02:06;16.60;;;6.90;;
9716;SDS011;4897;43.570;27.832;2022-11-06T13:04:44;16.50;;;8.40;;
9716;SDS011;4897;43.570;27.832;2022-11-06T13:07:33;20.00;;;8.60;;
9716;SDS011;4897;43.570;27.832;2022-11-06T13:10:27;14.52;;;8.35;;
9716;SDS011;4897;43.570;27.832;2022-11-06T13:13:06;17.92;;;7.90;;
9716;SDS011;4897;43.570;27.832;2022-11-06T13:15:48;16.60;;;7.95;;
9716;SDS011;4897;43.570;27.832;2022-11-06T13:18:21;15.65;;;7.75;;
9716;SDS011;4897;43.570;27.832;2022-11-06T13:20:55;19.30;;;7.95;;
9716;SDS011;4897;43.570;27.832;2022-11-06T13:23:27;16.35;;;7.68;;
9716;SDS011;4897;43.570;27.832;2022-11-06T13:25:58;14.05;;;7.75;;
9716;SDS011;4897;43.570;27.832;2022-11-06T13:28:33;12.38;;;7.32;;
9716;SDS011;4897;43.570;27.832;2022-11-06T13:31:07;16.40;;;7.85;;
9716;SDS011;4897;43.570;27.832;2022-11-06T13:33:37;15.38;;;7.97;;
9716;SDS011;4897;43.570;27.832;2022-11-06T13:36:07;16.02;;;7.05;;
9716;SDS011;4897;43.570;27.832;2022-11-06T13:38:39;14.35;;;6.40;;
9716;SDS011;4897;43.570;27.832;2022-11-06T13:41:11;16.63;;;7.43;;
9716;SDS011;4897;43.570;27.832;2022-11-06T13:43:42;16.80;;;7.60;;
9716;SDS011;4897;43.570;27.832;2022-11-06T13:46:17;14.43;;;7.35;;
9716;SDS011;4897;43.570;27.832;2022-11-06T13:48:51;19.73;;;8.48;;
9716;SDS011;4897;43.570;27.832;2022-11-06T13:51:28;18.27;;;8.43;;
9716;SDS011;4897;43.570;27.832;2022-11-06T13:54:05;15.32;;;8.65;;
9716;SDS011;4897;43.570;27.832;2022-11-06T13:56:46;15.88;;;7.68;;
9716;SDS011;4897;43.570;27.832;2022-11-06T13:59:42;18.48;;;7.38;;
9716;SDS011;4897;43.570;27.832;2022-11-06T14:02:41;17.65;;;6.50;;
9716;SDS011;4897;43.570;27.832;2022-11-06T14:05:50;12.60;;;6.38;;
9716;SDS011;4897;43.570;27.832;2022-11-06T14:08:22;14.20;;;6.65;;
9716;SDS011;4897;43.570;27.832;2022-11-06T14:10:53;13.43;;;7.40;;
9716;SDS011;4897;43.570;27.832;2022-11-06T14:13:24;23.05;;;7.45;;
9716;SDS011;4897;43.570;27.832;2022-11-06T14:16:00;12.18;;;6.63;;
9716;SDS011;4897;43.570;27.832;2022-11-06T14:18:32;17.92;;;8.05;;
9716;SDS011;4897;43.570;27.832;2022-11-06T14:23:54;12.52;;;7.07;;
9716;SDS011;4897;43.570;27.832;2022-11-06T14:26:37;15.48;;;7.95;;
9716;SDS011;4897;43.570;27.832;2022-11-06T14:32:31;16.00;;;7.60;;
9716;SDS011;4897;43.570;27.832;2022-11-06T14:44:22;11.10;;;7.43;;
9716;SDS011;4897;43.570;27.832;2022-11-06T14:46:54;17.27;;;7.93;;
9716;SDS011;4897;43.570;27.832;2022-11-06T14:49:29;17.67;;;6.93;;
9716;SDS011;4897;43.570;27.832;2022-11-06T14:52:03;20.15;;;7.32;;
9716;SDS011;4897;43.570;27.832;2022-11-06T14:54:34;14.60;;;6.88;;
9716;SDS011;4897;43.570;27.832;2022-11-06T14:57:04;11.65;;;6.57;;
9716;SDS011;4897;43.570;27.832;2022-11-06T14:59:33;19.63;;;6.97;;
9716;SDS011;4897;43.570;27.832;2022-11-06T15:02:03;13.45;;;6.72;;
9716;SDS011;4897;43.570;27.832;2022-11-06T15:04:41;14.60;;;6.88;;
9716;SDS011;4897;43.570;27.832;2022-11-06T15:07:24;12.73;;;6.68;;
9716;SDS011;4897;43.570;27.832;2022-11-06T15:09:59;12.73;;;7.40;;
9716;SDS011;4897;43.570;27.832;2022-11-06T15:15:30;15.68;;;7.25;;
9716;SDS011;4897;43.570;27.832;2022-11-06T15:17:57;16.92;;;7.22;;
9716;SDS011;4897;43.570;27.832;2022-11-06T15:20:25;19.05;;;7.55;;
9716;SDS011;4897;43.570;27.832;2022-11-06T15:22:57;17.70;;;6.20;;
9716;SDS011;4897;43.570;27.832;2022-11-06T15:25:31;17.17;;;7.82;;
9716;SDS011;4897;43.570;27.832;2022-11-06T15:28:00;16.50;;;7.50;;
9716;SDS011;4897;43.570;27.832;2022-11-06T15:30:32;15.32;;;7.22;;
9716;SDS011;4897;43.570;27.832;2022-11-06T15:33:08;15.38;;;5.78;;
9716;SDS011;4897;43.570;27.832;2022-11-06T15:35:39;11.45;;;5.80;;
9716;SDS011;4897;43.570;27.832;2022-11-06T15:38:09;13.35;;;6.07;;